In Rescue
 
Open Full Screen Window  High Contrast Mode
Wind Gusting 00 knots
06
November 25, 2020 5:22 AM EST
Present Weather: Light Snow
Weather Information
Wind Direction
  140 °
Wind Speed
  06 kt (7 mph)
Wind Gust
  00 kt (0 mph)
Altimeter
30.33 in
Visibility
7 SM
Temperature
-02° C
28° F
Dewpoint
-07° C
19° F
Humidity
69%
1hr Rain Fall
00.00 in.
24hr Rain Fall
00.00 in.
Sky Condition
Overcast @ 3,900 ft
VFR

METAR K6B0 251022Z AUTO 14006KT 7SM -SN OVC039 M02/M07 A3033 RMK AO2 T10251069

FAA Disclaimer: The data displayed is for advisory purposes only and is not to be used for flight planning or operations.